Terminal Aerodrome Forecast
Issued by NWS

Home | Current Version | Previous Version | Text Only | Print | Product List | Glossary On
Versions: 1 2 3 4 5 6 7 8 9 10 11 12 13 14 15 16 17 18 19 20 21 22 23 24 25 26 27 28
000
FTUS42 KMLB 151738
TAFFPR
TAF
KFPR 151738Z 1518/1618 32008KT P6SM VCTS SCT030CB BKN040
      TEMPO 1518/1521 32011G17KT 3SM TSRA BKN030CB
     FM160000 32005KT P6SM SCT030 BKN250
     FM161500 32008KT P6SM SCT030 BKN060=

USA.gov is the U.S. government's official web portal to all federal, state and local government web resources and services.